Terminal Aerodrome Forecast
Issued by NWS Wichita, KS

Home | Current Version | Previous Version | Graphics & Text | Print | Product List | Glossary On
Versions: 1 2 3 4 5 6 7 8 9 10 11 12 13
304
FTUS43 KICT 071124
TAFICT
TAF
KICT 071124Z 0712/0812 29006KT P6SM BKN200
     FM071400 34009KT P6SM BKN200
     FM071800 32019G27KT P6SM SCT200=

USA.gov is the U.S. government's official web portal to all federal, state and local government web resources and services.